createdAt,value
2024-01-19T00:02:22.888Z,15.07
2024-01-19T00:05:12.398Z,15.50
2024-01-19T00:08:01.926Z,14.93
2024-01-19T00:10:51.331Z,14.83
2024-01-19T00:13:40.678Z,13.53
2024-01-19T00:16:30.029Z,14.20
2024-01-19T00:19:20.759Z,14.17
2024-01-19T00:22:10.073Z,15.00
2024-01-19T00:24:59.472Z,14.33
2024-01-19T00:27:49.178Z,14.20
2024-01-19T00:30:38.802Z,13.70
2024-01-19T00:33:28.151Z,13.57
2024-01-19T00:36:18.839Z,13.43
2024-01-19T00:39:08.205Z,13.67
2024-01-19T00:41:57.779Z,13.40
2024-01-19T00:44:47.270Z,14.07
2024-01-19T00:47:36.795Z,13.73
2024-01-19T00:50:26.182Z,13.27
2024-01-19T00:53:16.929Z,14.10
2024-01-19T00:56:08.247Z,13.27
2024-01-19T00:58:57.632Z,13.70
2024-01-19T01:01:46.960Z,13.20
2024-01-19T01:04:36.435Z,12.87
2024-01-19T01:07:26.152Z,13.10
2024-01-19T01:10:17.034Z,13.70
2024-01-19T01:13:06.381Z,13.07
2024-01-19T01:15:55.760Z,13.10
2024-01-19T01:18:45.200Z,13.23
2024-01-19T01:21:34.628Z,14.03
2024-01-19T01:24:24.186Z,13.90
2024-01-19T01:27:14.931Z,13.53
2024-01-19T01:30:08.601Z,12.80
2024-01-19T01:32:58.105Z,13.57
2024-01-19T01:35:47.638Z,14.60
2024-01-19T01:38:37.035Z,14.20
2024-01-19T01:41:26.328Z,13.07
2024-01-19T01:44:17.137Z,13.53
2024-01-19T01:47:06.682Z,13.47
2024-01-19T01:49:56.853Z,14.20
2024-01-19T01:52:46.450Z,13.77
2024-01-19T01:55:35.773Z,18.23
2024-01-19T01:58:25.362Z,13.60
2024-01-19T02:01:16.202Z,14.17
2024-01-19T02:04:05.850Z,15.80
2024-01-19T02:06:55.309Z,14.30
2024-01-19T02:09:44.961Z,14.70
2024-01-19T02:12:34.638Z,14.80
2024-01-19T02:15:26.697Z,13.93
2024-01-19T02:18:17.667Z,14.90
2024-01-19T02:21:07.437Z,13.50
2024-01-19T02:24:02.542Z,14.90
2024-01-19T02:26:53.445Z,14.67
2024-01-19T02:29:50.473Z,14.37
2024-01-19T02:32:40.185Z,14.03
2024-01-19T02:35:29.665Z,14.43
2024-01-19T02:38:19.098Z,15.10
2024-01-19T02:41:08.506Z,14.40
2024-01-19T02:43:59.225Z,13.97
2024-01-19T02:46:48.610Z,13.70
2024-01-19T02:49:38.375Z,13.07
2024-01-19T02:52:27.719Z,13.50
2024-01-19T02:55:17.308Z,13.50
2024-01-19T02:58:06.694Z,13.53
2024-01-19T03:00:57.547Z,13.40
2024-01-19T03:03:47.603Z,13.60
2024-01-19T03:06:36.994Z,14.87
2024-01-19T03:09:26.273Z,15.93
2024-01-19T03:12:15.602Z,14.20
2024-01-19T03:15:06.042Z,13.40
2024-01-19T03:17:56.760Z,14.10
2024-01-19T03:20:46.304Z,14.70
2024-01-19T03:23:35.724Z,13.88
2024-01-19T03:26:25.283Z,14.93
2024-01-19T03:29:14.673Z,13.87
2024-01-19T03:32:05.882Z,14.33
2024-01-19T03:34:56.578Z,14.23
2024-01-19T03:37:48.650Z,14.47
2024-01-19T03:40:45.649Z,14.43
2024-01-19T03:43:35.020Z,14.37
2024-01-19T03:46:24.330Z,15.97
2024-01-19T03:49:13.728Z,16.30
2024-01-19T03:52:06.802Z,16.30
2024-01-19T03:54:56.090Z,15.10
2024-01-19T03:57:45.447Z,15.10
2024-01-19T04:00:34.791Z,15.83
2024-01-19T04:03:24.265Z,22.33
2024-01-19T04:06:13.793Z,15.80
2024-01-19T04:09:04.813Z,16.13
2024-01-19T04:11:54.308Z,17.20
2024-01-19T04:14:45.693Z,15.87
2024-01-19T04:17:35.879Z,16.60
2024-01-19T04:20:25.265Z,16.13
2024-01-19T04:23:15.953Z,16.73
2024-01-19T04:26:06.729Z,15.70
2024-01-19T04:28:56.505Z,17.20
2024-01-19T04:31:45.852Z,15.40
2024-01-19T04:34:35.453Z,15.07
2024-01-19T04:37:24.765Z,16.63
2024-01-19T04:40:14.077Z,15.63
2024-01-19T04:43:05.265Z,17.00
2024-01-19T04:45:54.670Z,16.47
2024-01-19T04:48:44.237Z,16.97
2024-01-19T04:51:33.782Z,15.93
2024-01-19T04:54:23.169Z,17.17
2024-01-19T04:57:12.686Z,16.10
2024-01-19T05:00:04.002Z,15.50
2024-01-19T05:02:53.531Z,16.50
2024-01-19T05:05:42.987Z,15.23
2024-01-19T05:08:32.428Z,14.57
2024-01-19T05:11:21.844Z,15.87
2024-01-19T05:14:11.195Z,15.20
2024-01-19T05:17:01.883Z,15.53
2024-01-19T05:19:51.364Z,16.17
2024-01-19T05:22:40.743Z,16.87
2024-01-19T05:25:30.149Z,15.27
2024-01-19T05:28:19.529Z,15.53
2024-01-19T05:31:08.863Z,14.97
2024-01-19T05:33:59.721Z,14.90
2024-01-19T05:36:49.336Z,14.73
2024-01-19T05:39:38.647Z,15.43
2024-01-19T05:42:27.996Z,15.20
2024-01-19T05:45:17.535Z,15.80
2024-01-19T05:48:07.908Z,15.50
2024-01-19T05:50:59.508Z,16.33
2024-01-19T05:53:48.966Z,16.60
2024-01-19T05:56:38.353Z,16.00
2024-01-19T05:59:27.889Z,15.97
2024-01-19T06:02:17.244Z,15.70
2024-01-19T06:05:07.817Z,15.47
2024-01-19T06:07:58.596Z,15.80
2024-01-19T06:10:47.985Z,16.63
2024-01-19T06:13:37.316Z,16.93
2024-01-19T06:16:26.745Z,16.33
2024-01-19T06:19:16.142Z,16.33
2024-01-19T06:22:06.930Z,15.43
2024-01-19T06:24:58.179Z,15.17
2024-01-19T06:27:47.481Z,19.17
2024-01-19T06:30:36.885Z,17.40
2024-01-19T06:33:26.209Z,15.37
2024-01-19T06:36:15.704Z,16.30
2024-01-19T06:39:08.494Z,15.77
2024-01-19T06:41:59.978Z,15.43
2024-01-19T06:44:50.207Z,15.93
2024-01-19T06:47:40.319Z,14.40
2024-01-19T06:50:29.723Z,14.90
2024-01-19T06:53:19.083Z,14.43
2024-01-19T06:56:10.103Z,15.90
2024-01-19T06:59:01.240Z,15.30
2024-01-19T07:01:50.595Z,14.90
2024-01-19T07:04:39.957Z,15.33
2024-01-19T07:07:29.395Z,15.57
2024-01-19T07:10:20.060Z,15.43
2024-01-19T07:13:09.765Z,16.10
2024-01-19T07:16:00.470Z,15.10
2024-01-19T07:18:50.124Z,14.90
2024-01-19T07:21:40.299Z,15.37
2024-01-19T07:24:33.613Z,15.00
2024-01-19T07:27:23.094Z,14.43
2024-01-19T07:30:13.118Z,14.03
2024-01-19T07:33:08.985Z,14.80
2024-01-19T07:36:00.635Z,15.00
2024-01-19T07:38:50.105Z,14.90
2024-01-19T07:41:39.420Z,14.70
2024-01-19T07:44:28.822Z,15.03
2024-01-19T07:47:18.152Z,14.50
2024-01-19T07:50:11.756Z,14.17
2024-01-19T07:53:01.017Z,15.13
2024-01-19T07:55:50.443Z,14.60
2024-01-19T07:58:39.902Z,14.70
2024-01-19T08:01:29.355Z,17.90
2024-01-19T08:04:19.372Z,14.30
2024-01-19T08:07:10.350Z,14.10
2024-01-19T08:10:00.046Z,14.10
2024-01-19T08:12:49.470Z,14.07
2024-01-19T08:15:38.794Z,13.87
2024-01-19T08:18:37.109Z,13.77
2024-01-19T08:21:27.266Z,13.97
2024-01-19T08:24:18.011Z,14.80
2024-01-19T08:27:07.322Z,14.17
2024-01-19T08:29:56.664Z,13.93
2024-01-19T08:32:46.896Z,14.57
2024-01-19T08:35:36.328Z,13.80
2024-01-19T08:38:25.695Z,14.13
2024-01-19T08:41:16.821Z,14.07
2024-01-19T08:44:06.381Z,13.80
2024-01-19T08:46:55.727Z,13.00
2024-01-19T08:49:45.229Z,12.83
2024-01-19T08:52:34.790Z,13.40
2024-01-19T08:55:24.220Z,12.80
2024-01-19T08:58:15.942Z,12.80
2024-01-19T09:01:05.564Z,13.27
2024-01-19T09:03:55.268Z,12.67
2024-01-19T09:06:45.803Z,12.23
2024-01-19T09:09:35.563Z,12.27
2024-01-19T09:12:24.934Z,12.63
2024-01-19T09:15:17.595Z,12.20
2024-01-19T09:18:08.510Z,13.17
2024-01-19T09:20:58.013Z,12.50
2024-01-19T09:23:47.534Z,13.30
2024-01-19T09:26:36.951Z,12.70
2024-01-19T09:29:26.390Z,12.90
2024-01-19T09:32:18.312Z,11.93
2024-01-19T09:35:08.750Z,12.20
2024-01-19T09:37:58.237Z,12.63
2024-01-19T09:40:47.702Z,12.60
2024-01-19T09:43:38.416Z,11.87
2024-01-19T09:46:30.403Z,12.77
2024-01-19T09:49:31.091Z,12.53
2024-01-19T09:52:29.544Z,12.13
2024-01-19T09:55:21.661Z,12.60
2024-01-19T09:58:11.712Z,12.20
2024-01-19T10:01:02.788Z,11.83
2024-01-19T10:04:00.761Z,12.50
2024-01-19T10:06:52.279Z,11.97
2024-01-19T10:09:42.494Z,12.37
2024-01-19T10:12:36.159Z,11.60
2024-01-19T10:15:25.844Z,11.37
2024-01-19T10:18:16.590Z,12.00
2024-01-19T10:21:07.381Z,11.03
2024-01-19T10:24:11.361Z,11.50
2024-01-19T10:27:01.332Z,11.60
2024-01-19T10:29:50.922Z,11.70
2024-01-19T10:32:41.554Z,12.00
2024-01-19T10:35:31.379Z,11.73
2024-01-19T10:38:25.011Z,11.53
2024-01-19T10:41:19.921Z,12.13
2024-01-19T10:44:13.051Z,11.20
2024-01-19T10:47:05.099Z,11.80
2024-01-19T10:50:06.955Z,11.13
2024-01-19T10:52:57.950Z,12.00
2024-01-19T10:55:50.370Z,11.93
2024-01-19T10:58:41.206Z,11.30
2024-01-19T11:01:30.647Z,11.00
2024-01-19T11:04:20.043Z,12.00
2024-01-19T11:07:09.791Z,12.40
2024-01-19T11:09:59.251Z,12.23
2024-01-19T11:12:53.542Z,11.93
2024-01-19T11:15:51.484Z,11.30
2024-01-19T11:18:42.893Z,11.60
2024-01-19T11:21:32.427Z,12.53
2024-01-19T11:24:23.236Z,12.63
2024-01-19T11:27:23.736Z,11.97
2024-01-19T11:30:28.551Z,11.23
2024-01-19T11:33:20.223Z,12.37
2024-01-19T11:36:10.246Z,12.63
2024-01-19T11:38:59.630Z,11.90
2024-01-19T11:41:49.960Z,11.93
2024-01-19T11:44:48.004Z,11.80
2024-01-19T11:47:45.401Z,11.77
2024-01-19T11:50:48.418Z,12.00
2024-01-19T11:53:58.145Z,12.57
2024-01-19T11:56:47.786Z,12.33
2024-01-19T11:59:37.813Z,13.23
2024-01-19T12:02:32.469Z,12.60
2024-01-19T12:05:23.588Z,12.10
2024-01-19T12:08:15.878Z,13.27
2024-01-19T12:11:08.284Z,12.23
2024-01-19T12:14:05.745Z,12.57
2024-01-19T12:16:58.506Z,12.70
2024-01-19T12:19:47.857Z,13.57
2024-01-19T12:22:37.492Z,12.77
2024-01-19T12:25:28.894Z,13.20
2024-01-19T12:28:18.989Z,13.07
2024-01-19T12:31:24.640Z,13.23
2024-01-19T12:34:14.634Z,13.40
2024-01-19T12:37:04.314Z,12.87
2024-01-19T12:39:53.733Z,13.40
2024-01-19T12:42:45.003Z,13.23
2024-01-19T12:45:35.347Z,13.48
2024-01-19T12:48:29.150Z,14.17
2024-01-19T12:51:24.342Z,14.00
2024-01-19T12:54:16.256Z,14.47
2024-01-19T12:57:06.731Z,13.63
2024-01-19T13:00:12.201Z,15.43
2024-01-19T13:03:02.711Z,13.03
2024-01-19T13:05:52.449Z,13.70
2024-01-19T13:08:41.863Z,14.87
2024-01-19T13:11:31.227Z,13.73
2024-01-19T13:14:26.310Z,13.50
2024-01-19T13:17:25.994Z,14.47
2024-01-19T13:20:26.347Z,15.33
2024-01-19T13:23:15.868Z,13.27
2024-01-19T13:26:05.688Z,13.30
2024-01-19T13:28:56.040Z,13.90
2024-01-19T13:31:45.409Z,13.10
2024-01-19T13:34:36.116Z,13.17
2024-01-19T13:37:25.653Z,12.37
2024-01-19T13:40:15.280Z,13.23
2024-01-19T13:43:04.876Z,17.13
2024-01-19T13:45:54.371Z,13.80
2024-01-19T13:48:43.967Z,12.73
2024-01-19T13:51:35.017Z,13.00
2024-01-19T13:54:24.606Z,13.60
2024-01-19T13:57:14.195Z,13.33
2024-01-19T14:00:03.884Z,13.80
2024-01-19T14:03:16.146Z,13.13
2024-01-19T14:06:06.255Z,12.83
2024-01-19T14:08:57.298Z,14.30
2024-01-19T14:11:50.071Z,15.10
2024-01-19T14:14:39.573Z,13.40
2024-01-19T14:17:28.973Z,14.00
2024-01-19T14:20:18.886Z,13.57
2024-01-19T14:23:08.386Z,14.37
2024-01-19T14:25:59.187Z,13.30
2024-01-19T14:28:49.614Z,14.30
2024-01-19T14:31:42.276Z,14.00
2024-01-19T14:34:39.338Z,13.17
2024-01-19T14:37:35.608Z,13.03
2024-01-19T14:40:24.979Z,13.30
2024-01-19T14:43:15.901Z,13.27
2024-01-19T14:46:06.589Z,12.67
2024-01-19T14:48:56.012Z,12.63
2024-01-19T14:51:46.907Z,13.63
2024-01-19T14:54:36.901Z,12.63
2024-01-19T14:57:26.371Z,13.50
2024-01-19T15:00:18.174Z,13.23
2024-01-19T15:03:07.772Z,13.30
2024-01-19T15:05:58.693Z,13.43
2024-01-19T15:08:48.106Z,12.70
2024-01-19T15:11:37.700Z,12.43
2024-01-19T15:14:27.008Z,14.17
2024-01-19T15:17:17.844Z,14.07
2024-01-19T15:20:10.659Z,14.03
2024-01-19T15:23:00.196Z,13.17
2024-01-19T15:25:49.775Z,13.63
2024-01-19T15:28:39.337Z,13.63
2024-01-19T15:31:28.721Z,12.60
2024-01-19T15:34:19.605Z,13.80
2024-01-19T15:37:12.497Z,13.20
2024-01-19T15:40:02.495Z,14.60
2024-01-19T15:42:51.837Z,14.80
2024-01-19T15:45:41.844Z,13.23
2024-01-19T15:48:31.435Z,12.60
2024-01-19T15:51:25.649Z,12.67
2024-01-19T15:54:17.453Z,13.27
2024-01-19T15:57:07.746Z,12.97
2024-01-19T15:59:57.132Z,12.60
2024-01-19T16:02:46.526Z,12.93
2024-01-19T16:05:35.993Z,12.80
2024-01-19T16:08:26.729Z,13.63
2024-01-19T16:11:16.224Z,13.30
2024-01-19T16:14:06.164Z,14.00
2024-01-19T16:16:55.758Z,12.70
2024-01-19T16:19:45.211Z,12.53
2024-01-19T16:22:35.573Z,13.40
2024-01-19T16:25:26.368Z,12.80
2024-01-19T16:28:15.920Z,11.80
2024-01-19T16:31:08.686Z,13.10
2024-01-19T16:33:58.031Z,11.80
2024-01-19T16:36:47.394Z,12.90
2024-01-19T16:39:38.248Z,12.60
2024-01-19T16:42:28.975Z,14.27
2024-01-19T16:45:18.516Z,12.13
2024-01-19T16:48:08.374Z,12.73
2024-01-19T16:51:00.490Z,12.90
2024-01-19T16:53:49.796Z,14.23
2024-01-19T16:56:43.150Z,13.03
2024-01-19T16:59:36.081Z,12.60
2024-01-19T17:02:25.521Z,12.87
2024-01-19T17:05:16.399Z,13.63
2024-01-19T17:08:06.695Z,13.90
2024-01-19T17:10:56.123Z,14.37
2024-01-19T17:13:45.535Z,13.93
2024-01-19T17:16:40.572Z,15.43
2024-01-19T17:19:30.031Z,14.33
2024-01-19T17:22:19.418Z,15.40
2024-01-19T17:25:09.699Z,13.97
2024-01-19T17:27:59.303Z,14.73
2024-01-19T17:30:48.745Z,15.43
2024-01-19T17:33:43.609Z,14.80
2024-01-19T17:36:39.516Z,15.60
2024-01-19T17:39:30.657Z,15.10
2024-01-19T17:42:20.467Z,16.00
2024-01-19T17:45:20.238Z,14.87
2024-01-19T17:48:11.320Z,15.03
2024-01-19T17:51:02.173Z,15.50
2024-01-19T17:53:52.882Z,16.33
2024-01-19T17:56:42.501Z,15.77
2024-01-19T17:59:32.001Z,13.90
2024-01-19T18:02:21.454Z,15.67
2024-01-19T18:05:10.926Z,14.67
2024-01-19T18:08:02.388Z,15.30
2024-01-19T18:10:52.001Z,14.10
2024-01-19T18:13:42.094Z,14.30
2024-01-19T18:16:32.846Z,14.30
2024-01-19T18:19:22.495Z,13.90
2024-01-19T18:22:12.846Z,14.20
2024-01-19T18:25:03.749Z,13.87
2024-01-19T18:27:53.329Z,13.97
2024-01-19T18:30:42.694Z,13.83
2024-01-19T18:33:32.248Z,14.50
2024-01-19T18:36:21.823Z,15.00
2024-01-19T18:39:13.203Z,14.63
2024-01-19T18:42:06.056Z,14.10
2024-01-19T18:44:56.919Z,14.53
2024-01-19T18:47:46.254Z,14.00
2024-01-19T18:50:35.798Z,15.70
2024-01-19T18:53:25.248Z,15.10
2024-01-19T18:56:14.793Z,14.50
2024-01-19T18:59:06.422Z,14.80
2024-01-19T19:01:55.892Z,14.07
2024-01-19T19:04:45.562Z,15.27
2024-01-19T19:07:35.704Z,15.13
2024-01-19T19:10:25.372Z,14.23
2024-01-19T19:13:14.883Z,13.83
2024-01-19T19:16:09.747Z,13.40
2024-01-19T19:19:04.324Z,13.23
2024-01-19T19:21:54.072Z,14.10
2024-01-19T19:24:43.381Z,14.43
2024-01-19T19:27:32.725Z,13.00
2024-01-19T19:30:22.147Z,13.00
2024-01-19T19:33:13.015Z,14.33
2024-01-19T19:36:02.915Z,13.00
2024-01-19T19:38:52.262Z,14.37
2024-01-19T19:41:46.464Z,13.27
2024-01-19T19:44:35.912Z,14.03
2024-01-19T19:47:25.616Z,13.40
2024-01-19T19:50:16.652Z,14.50
2024-01-19T19:53:06.231Z,14.87
2024-01-19T19:55:56.463Z,16.77
2024-01-19T19:58:46.526Z,13.90
2024-01-19T20:01:36.125Z,13.63
2024-01-19T20:04:25.853Z,15.10
2024-01-19T20:07:16.652Z,14.40
2024-01-19T20:10:07.662Z,14.70
2024-01-19T20:12:57.527Z,13.47
2024-01-19T20:15:47.034Z,13.63
2024-01-19T20:18:36.721Z,14.00
2024-01-19T20:21:26.344Z,16.33
2024-01-19T20:24:17.599Z,13.50
2024-01-19T20:27:07.325Z,13.53
2024-01-19T20:29:57.435Z,13.23
2024-01-19T20:32:46.899Z,13.87
2024-01-19T20:35:36.414Z,14.17
2024-01-19T20:38:26.063Z,13.50
2024-01-19T20:41:17.744Z,13.73
2024-01-19T20:44:07.737Z,13.97
2024-01-19T20:46:57.245Z,13.37
2024-01-19T20:49:46.761Z,13.90
2024-01-19T20:52:37.831Z,14.03
2024-01-19T20:55:27.305Z,15.90
2024-01-19T20:58:18.157Z,14.53
2024-01-19T21:01:07.599Z,16.97
2024-01-19T21:03:57.133Z,15.30
2024-01-19T21:06:46.642Z,14.40
2024-01-19T21:09:36.118Z,14.20
2024-01-19T21:12:28.088Z,13.80
2024-01-19T21:15:21.373Z,13.67
2024-01-19T21:18:12.887Z,13.70
2024-01-19T21:21:03.061Z,12.90
2024-01-19T21:23:52.436Z,12.00
2024-01-19T21:26:41.776Z,13.40
2024-01-19T21:29:31.120Z,13.87
2024-01-19T21:32:21.974Z,13.43
2024-01-19T21:35:12.160Z,13.30
2024-01-19T21:38:01.782Z,13.50
2024-01-19T21:40:51.211Z,12.87
2024-01-19T21:43:40.640Z,13.57
2024-01-19T21:46:30.140Z,13.33
2024-01-19T21:49:20.971Z,12.67
2024-01-19T21:52:10.553Z,15.13
2024-01-19T21:55:02.116Z,12.07
2024-01-19T21:57:51.951Z,12.30
2024-01-19T22:00:41.668Z,12.40
2024-01-19T22:03:31.264Z,12.80
2024-01-19T22:06:22.255Z,13.30
2024-01-19T22:09:12.432Z,12.83
2024-01-19T22:12:01.965Z,13.03
2024-01-19T22:14:51.399Z,12.23
2024-01-19T22:17:40.946Z,12.63
2024-01-19T22:20:30.297Z,13.23
2024-01-19T22:23:21.078Z,13.00
2024-01-19T22:26:10.894Z,12.13
2024-01-19T22:29:00.372Z,12.10
2024-01-19T22:31:49.983Z,12.47
2024-01-19T22:34:39.988Z,12.30
2024-01-19T22:37:29.638Z,12.03
2024-01-19T22:40:20.658Z,11.87
2024-01-19T22:43:14.383Z,12.30
2024-01-19T22:46:04.038Z,12.40
2024-01-19T22:48:53.809Z,12.10
2024-01-19T22:51:43.629Z,12.40
2024-01-19T22:54:32.975Z,12.20
2024-01-19T22:57:23.963Z,13.03
2024-01-19T23:00:16.215Z,11.70
2024-01-19T23:03:06.335Z,11.77
2024-01-19T23:05:55.843Z,11.70
2024-01-19T23:08:45.225Z,11.97
2024-01-19T23:11:34.699Z,11.83
2024-01-19T23:14:25.609Z,11.60
2024-01-19T23:17:15.211Z,12.30
2024-01-19T23:20:05.982Z,12.37
2024-01-19T23:22:55.447Z,12.07
2024-01-19T23:25:45.199Z,11.80
2024-01-19T23:28:34.628Z,12.50
2024-01-19T23:31:25.341Z,11.93
2024-01-19T23:34:15.067Z,12.43
2024-01-19T23:37:05.339Z,11.20
2024-01-19T23:39:55.481Z,11.40
2024-01-19T23:42:44.839Z,12.17
2024-01-19T23:45:34.427Z,12.10
2024-01-19T23:48:25.196Z,12.23
2024-01-19T23:51:14.667Z,11.40
2024-01-19T23:54:04.086Z,12.33
2024-01-19T23:56:53.959Z,11.90
2024-01-19T23:59:43.602Z,13.67
